createdAt,value
2024-04-22T00:02:05.773Z,3.13
2024-04-22T00:04:34.563Z,2.97
2024-04-22T00:07:03.498Z,2.53
2024-04-22T00:09:32.245Z,2.73
2024-04-22T00:11:59.219Z,3.03
2024-04-22T00:14:27.957Z,3.20
2024-04-22T00:16:54.752Z,3.80
2024-04-22T00:19:23.636Z,3.20
2024-04-22T00:21:50.501Z,3.07
2024-04-22T00:24:21.434Z,3.50
2024-04-22T00:26:48.385Z,3.37
2024-04-22T00:29:17.189Z,3.33
2024-04-22T00:31:44.152Z,3.27
2024-04-22T00:34:13.051Z,3.20
2024-04-22T00:36:40.044Z,2.57
2024-04-22T00:39:09.514Z,2.90
2024-04-22T00:41:38.431Z,3.00
2024-04-22T00:44:07.490Z,3.27
2024-04-22T00:46:34.354Z,3.17
2024-04-22T00:49:03.431Z,3.17
2024-04-22T00:51:30.716Z,3.40
2024-04-22T00:54:00.108Z,3.63
2024-04-22T00:56:29.526Z,3.60
2024-04-22T00:59:02.226Z,3.53
2024-04-22T01:01:29.431Z,3.90
2024-04-22T01:03:58.367Z,3.60
2024-04-22T01:06:25.200Z,3.50
2024-04-22T01:08:53.973Z,2.80
2024-04-22T01:11:20.786Z,3.30
2024-04-22T01:13:50.948Z,2.70
2024-04-22T01:16:19.833Z,3.60
2024-04-22T01:18:48.571Z,3.50
2024-04-22T01:21:15.365Z,3.20
2024-04-22T01:23:47.860Z,3.33
2024-04-22T01:26:14.564Z,4.10
2024-04-22T01:28:43.331Z,2.97
2024-04-22T01:31:10.927Z,4.13
2024-04-22T01:33:39.771Z,3.30
2024-04-22T01:36:06.949Z,4.23
2024-04-22T01:38:35.733Z,3.53
2024-04-22T01:41:06.680Z,3.90
2024-04-22T01:43:33.554Z,4.00
2024-04-22T01:46:05.194Z,3.73
2024-04-22T01:48:32.357Z,3.73
2024-04-22T01:51:01.219Z,4.37
2024-04-22T01:53:27.918Z,4.07
2024-04-22T01:55:58.258Z,4.23
2024-04-22T01:58:27.048Z,3.90
2024-04-22T02:00:55.939Z,4.37
2024-04-22T02:03:22.787Z,4.47
2024-04-22T02:05:51.486Z,4.13
2024-04-22T02:08:18.228Z,4.17
2024-04-22T02:10:47.151Z,5.77
2024-04-22T02:13:13.929Z,4.27
2024-04-22T02:15:44.823Z,4.10
2024-04-22T02:18:11.907Z,4.57
2024-04-22T02:20:40.532Z,5.27
2024-04-22T02:23:07.299Z,4.80
2024-04-22T02:25:36.457Z,4.43
2024-04-22T02:28:03.507Z,4.90
2024-04-22T02:30:32.263Z,4.53
2024-04-22T02:33:01.191Z,4.53
2024-04-22T02:35:29.920Z,5.13
2024-04-22T02:37:56.441Z,4.43
2024-04-22T02:40:25.193Z,4.43
2024-04-22T02:42:51.841Z,4.80
2024-04-22T02:45:20.488Z,4.93
2024-04-22T02:47:47.272Z,4.80
2024-04-22T02:50:18.239Z,4.83
2024-04-22T02:52:44.892Z,4.40
2024-04-22T02:55:13.591Z,4.13
2024-04-22T02:57:40.210Z,4.83
2024-04-22T03:00:10.129Z,5.00
2024-04-22T03:02:38.105Z,4.47
2024-04-22T03:05:07.297Z,4.90
2024-04-22T03:07:35.961Z,4.47
2024-04-22T03:10:04.713Z,4.33
2024-04-22T03:12:32.487Z,4.23
2024-04-22T03:15:01.832Z,4.20
2024-04-22T03:17:28.738Z,4.20
2024-04-22T03:19:57.527Z,4.80
2024-04-22T03:22:24.232Z,4.90
2024-04-22T03:24:54.979Z,3.60
2024-04-22T03:27:21.595Z,5.03
2024-04-22T03:29:50.222Z,4.83
2024-04-22T03:32:16.978Z,4.37
2024-04-22T03:34:45.813Z,4.90
2024-04-22T03:37:14.712Z,4.97
2024-04-22T03:39:43.742Z,4.57
2024-04-22T03:42:14.457Z,4.97
2024-04-22T03:44:41.172Z,4.53
2024-04-22T03:47:26.455Z,4.63
2024-04-22T03:49:56.882Z,4.50
2024-04-22T03:52:25.881Z,5.13
2024-04-22T03:54:54.535Z,4.87
2024-04-22T03:57:25.330Z,4.53
2024-04-22T03:59:51.917Z,4.50
2024-04-22T04:02:20.754Z,4.47
2024-04-22T04:04:47.564Z,4.20
2024-04-22T04:07:16.429Z,4.93
2024-04-22T04:09:43.241Z,4.90
2024-04-22T04:12:11.975Z,4.90
2024-04-22T04:14:40.786Z,4.90
2024-04-22T04:17:09.665Z,4.43
2024-04-22T04:19:36.541Z,5.00
2024-04-22T04:22:05.464Z,4.10
2024-04-22T04:24:32.191Z,4.57
2024-04-22T04:27:00.992Z,4.03
2024-04-22T04:29:27.712Z,5.77
2024-04-22T04:31:58.628Z,4.07
2024-04-22T04:34:25.405Z,4.70
2024-04-22T04:36:54.095Z,5.00
2024-04-22T04:39:20.820Z,5.30
2024-04-22T04:41:49.429Z,4.73
2024-04-22T04:44:16.343Z,4.73
2024-04-22T04:46:45.272Z,4.40
2024-04-22T04:49:14.056Z,5.10
2024-04-22T04:51:43.119Z,4.47
2024-04-22T04:54:09.760Z,5.17
2024-04-22T04:56:38.539Z,5.10
2024-04-22T04:59:05.216Z,4.20
2024-04-22T05:01:34.117Z,4.80
2024-04-22T05:04:02.998Z,6.80
2024-04-22T05:06:35.404Z,5.13
2024-04-22T05:09:02.149Z,4.47
2024-04-22T05:11:31.170Z,4.70
2024-04-22T05:13:57.950Z,4.60
2024-04-22T05:16:26.718Z,5.40
2024-04-22T05:18:53.419Z,4.27
2024-04-22T05:21:22.325Z,4.10
2024-04-22T05:23:51.090Z,4.50
2024-04-22T05:26:19.758Z,5.10
2024-04-22T05:28:46.587Z,4.77
2024-04-22T05:31:15.852Z,6.73
2024-04-22T05:34:01.231Z,5.00
2024-04-22T05:36:29.904Z,4.37
2024-04-22T05:39:00.687Z,4.17
2024-04-22T05:41:29.374Z,4.67
2024-04-22T05:43:58.293Z,4.10
2024-04-22T05:46:27.262Z,3.73
2024-04-22T05:48:55.957Z,4.53
2024-04-22T05:51:24.678Z,4.37
2024-04-22T05:53:53.740Z,3.70
2024-04-22T05:56:22.475Z,4.50
2024-04-22T05:58:51.315Z,4.53
2024-04-22T06:01:18.308Z,4.07
2024-04-22T06:03:47.043Z,3.67
2024-04-22T06:06:13.721Z,3.80
2024-04-22T06:08:43.403Z,3.80
2024-04-22T06:11:10.617Z,3.60
2024-04-22T06:13:41.545Z,4.10
2024-04-22T06:16:08.154Z,4.37
2024-04-22T06:18:36.784Z,3.57
2024-04-22T06:21:03.832Z,4.47
2024-04-22T06:23:32.614Z,3.90
2024-04-22T06:26:02.662Z,3.53
2024-04-22T06:28:31.520Z,3.20
2024-04-22T06:31:00.250Z,3.43
2024-04-22T06:33:29.284Z,3.33
2024-04-22T06:35:56.378Z,2.93
2024-04-22T06:38:26.058Z,2.47
2024-04-22T06:40:52.790Z,3.20
2024-04-22T06:43:21.626Z,3.03
2024-04-22T06:45:48.343Z,2.70
2024-04-22T06:48:19.236Z,2.80
2024-04-22T06:50:46.646Z,3.37
2024-04-22T06:53:15.432Z,3.20
2024-04-22T06:55:42.381Z,3.40
2024-04-22T06:58:11.093Z,2.60
2024-04-22T07:00:37.701Z,2.80
2024-04-22T07:03:07.285Z,3.00
2024-04-22T07:05:36.059Z,2.53
2024-04-22T07:08:04.811Z,2.83
2024-04-22T07:10:31.459Z,3.00
2024-04-22T07:13:00.464Z,3.00
2024-04-22T07:15:27.315Z,2.67
2024-04-22T07:17:56.167Z,3.00
2024-04-22T07:20:23.092Z,2.73
2024-04-22T07:22:53.934Z,3.27
2024-04-22T07:25:21.372Z,2.77
2024-04-22T07:27:50.593Z,2.93
2024-04-22T07:30:21.596Z,2.60
2024-04-22T07:32:51.233Z,2.57
2024-04-22T07:35:18.962Z,3.03
2024-04-22T07:37:49.829Z,2.97
2024-04-22T07:40:20.697Z,2.70
2024-04-22T07:42:50.397Z,2.97
2024-04-22T07:45:17.399Z,2.90
2024-04-22T07:47:46.684Z,2.67
2024-04-22T07:50:13.674Z,2.80
2024-04-22T07:52:43.369Z,2.63
2024-04-22T07:55:11.609Z,2.40
2024-04-22T07:57:46.496Z,2.23
2024-04-22T08:00:14.332Z,2.40
2024-04-22T08:02:43.710Z,2.73
2024-04-22T08:05:11.292Z,2.53
2024-04-22T08:07:41.958Z,2.27
2024-04-22T08:10:08.819Z,3.80
2024-04-22T08:12:38.390Z,2.60
2024-04-22T08:15:07.407Z,2.30
2024-04-22T08:17:36.264Z,2.10
2024-04-22T08:20:03.240Z,2.37
2024-04-22T08:22:33.360Z,2.37
2024-04-22T08:25:03.322Z,2.10
2024-04-22T08:27:32.451Z,1.70
2024-04-22T08:29:59.553Z,1.80
2024-04-22T08:32:30.507Z,2.17
2024-04-22T08:34:57.319Z,1.97
2024-04-22T08:37:26.106Z,2.07
2024-04-22T08:39:52.903Z,2.10
2024-04-22T08:42:24.204Z,1.90
2024-04-22T08:44:51.882Z,3.97
2024-04-22T08:47:20.798Z,1.60
2024-04-22T08:49:49.921Z,1.70
2024-04-22T08:52:19.772Z,1.70
2024-04-22T08:54:46.688Z,2.00
2024-04-22T08:57:15.575Z,2.00
2024-04-22T08:59:43.399Z,2.33
2024-04-22T09:02:15.718Z,1.63
2024-04-22T09:04:44.835Z,1.80
2024-04-22T09:07:20.944Z,1.80
2024-04-22T09:10:05.002Z,1.70
2024-04-22T09:12:37.095Z,1.90
2024-04-22T09:15:05.484Z,1.83
2024-04-22T09:17:35.490Z,1.67
2024-04-22T09:20:02.710Z,1.70
2024-04-22T09:22:34.035Z,1.77
2024-04-22T09:25:01.575Z,1.43
2024-04-22T09:27:33.252Z,1.83
2024-04-22T09:30:04.797Z,1.63
2024-04-22T09:32:35.223Z,1.90
2024-04-22T09:35:15.736Z,1.30
2024-04-22T09:37:50.315Z,1.73
2024-04-22T09:40:18.496Z,2.10
2024-04-22T09:42:48.318Z,2.10
2024-04-22T09:45:16.670Z,1.90
2024-04-22T09:47:46.771Z,2.40
2024-04-22T09:50:13.663Z,2.67
2024-04-22T09:52:42.600Z,3.20
2024-04-22T09:55:11.407Z,2.40
2024-04-22T09:57:43.661Z,2.20
2024-04-22T10:00:11.855Z,2.00
2024-04-22T10:02:41.264Z,2.30
2024-04-22T10:05:10.404Z,2.10
2024-04-22T10:07:41.738Z,1.90
2024-04-22T10:10:12.680Z,2.00
2024-04-22T10:12:41.612Z,1.67
2024-04-22T10:15:13.462Z,2.40
2024-04-22T10:17:44.326Z,1.97
2024-04-22T10:20:12.513Z,1.77
2024-04-22T10:22:41.763Z,1.83
2024-04-22T10:25:12.712Z,2.03
2024-04-22T10:27:42.092Z,1.83
2024-04-22T10:30:09.863Z,1.97
2024-04-22T10:32:38.927Z,1.87
2024-04-22T10:35:07.528Z,2.10
2024-04-22T10:37:36.571Z,2.20
2024-04-22T10:40:03.716Z,2.33
2024-04-22T10:42:34.566Z,1.83
2024-04-22T10:45:01.486Z,1.80
2024-04-22T10:47:30.806Z,2.23
2024-04-22T10:49:57.789Z,2.50
2024-04-22T10:52:27.897Z,2.50
2024-04-22T10:54:55.061Z,2.50
2024-04-22T10:57:24.006Z,3.10
2024-04-22T10:59:52.710Z,2.33
2024-04-22T11:02:21.514Z,2.77
2024-04-22T11:04:49.605Z,2.63
2024-04-22T11:07:20.158Z,3.23
2024-04-22T11:09:47.631Z,3.33
2024-04-22T11:12:18.499Z,2.70
2024-04-22T11:14:46.757Z,3.17
2024-04-22T11:17:23.153Z,3.00
2024-04-22T11:19:50.501Z,2.97
2024-04-22T11:22:20.442Z,3.27
2024-04-22T11:24:47.516Z,3.57
2024-04-22T11:27:16.633Z,3.37
2024-04-22T11:29:43.570Z,3.47
2024-04-22T11:32:12.971Z,3.40
2024-04-22T11:34:41.946Z,3.40
2024-04-22T11:37:10.891Z,3.33
2024-04-22T11:39:37.657Z,3.53
2024-04-22T11:42:06.770Z,3.40
2024-04-22T11:44:33.489Z,3.10
2024-04-22T11:47:02.515Z,3.10
2024-04-22T11:49:29.328Z,4.07
2024-04-22T11:52:00.302Z,3.23
2024-04-22T11:54:27.073Z,2.73
2024-04-22T11:56:55.827Z,2.97
2024-04-22T11:59:22.598Z,2.43
2024-04-22T12:01:51.769Z,3.83
2024-04-22T12:04:18.695Z,2.40
2024-04-22T12:06:47.653Z,1.80
2024-04-22T12:09:16.540Z,1.90
2024-04-22T12:11:45.639Z,2.07
2024-04-22T12:14:12.311Z,2.03
2024-04-22T12:16:41.046Z,2.10
2024-04-22T12:19:08.079Z,2.57
2024-04-22T12:21:37.133Z,2.70
2024-04-22T12:24:04.010Z,3.07
2024-04-22T12:26:34.896Z,3.03
2024-04-22T12:29:01.609Z,2.70
2024-04-22T12:31:30.417Z,3.20
2024-04-22T12:34:06.044Z,3.00
2024-04-22T12:36:40.484Z,2.77
2024-04-22T12:39:07.289Z,2.60
2024-04-22T12:41:44.101Z,2.80
2024-04-22T12:44:22.685Z,2.80
2024-04-22T12:47:08.242Z,2.60
2024-04-22T12:49:55.027Z,2.70
2024-04-22T12:52:24.132Z,2.93
2024-04-22T12:54:53.012Z,2.53
2024-04-22T12:57:24.226Z,2.50
2024-04-22T12:59:54.870Z,2.90
2024-04-22T13:02:24.318Z,2.73
2024-04-22T13:04:53.079Z,2.93
2024-04-22T13:07:22.587Z,2.50
2024-04-22T13:09:51.509Z,2.33
2024-04-22T13:12:27.027Z,2.73
2024-04-22T13:14:56.335Z,2.63
2024-04-22T13:17:26.367Z,2.43
2024-04-22T13:19:55.289Z,2.90
2024-04-22T13:22:22.067Z,2.70
2024-04-22T13:24:50.897Z,2.90
2024-04-22T13:27:17.762Z,5.03
2024-04-22T13:29:48.575Z,2.50
2024-04-22T13:32:19.147Z,3.27
2024-04-22T13:34:50.947Z,2.80
2024-04-22T13:37:17.629Z,2.43
2024-04-22T13:39:48.873Z,2.80
2024-04-22T13:42:15.809Z,2.30
2024-04-22T13:44:44.688Z,2.63
2024-04-22T13:47:14.339Z,2.67
2024-04-22T13:49:43.396Z,3.13
2024-04-22T13:52:10.729Z,2.37
2024-04-22T13:54:39.306Z,2.53
2024-04-22T13:57:05.887Z,2.63
2024-04-22T13:59:34.510Z,2.83
2024-04-22T14:02:01.415Z,2.93
2024-04-22T14:04:32.132Z,2.70
2024-04-22T14:06:58.699Z,2.53
2024-04-22T14:09:27.323Z,3.63
2024-04-22T14:11:54.022Z,3.60
2024-04-22T14:14:22.726Z,3.20
2024-04-22T14:16:49.379Z,3.23
2024-04-22T14:19:18.129Z,2.93
2024-04-22T14:21:46.791Z,3.13
2024-04-22T14:24:17.077Z,4.20
2024-04-22T14:26:43.819Z,3.40
2024-04-22T14:29:12.515Z,3.40
2024-04-22T14:31:39.247Z,2.77
2024-04-22T14:34:07.899Z,3.80
2024-04-22T14:36:34.552Z,2.83
2024-04-22T14:39:05.382Z,3.20
2024-04-22T14:41:32.290Z,2.63
2024-04-22T14:44:01.247Z,3.30
2024-04-22T14:46:28.567Z,3.00
2024-04-22T14:48:57.258Z,2.33
2024-04-22T14:51:23.937Z,2.33
2024-04-22T14:53:53.472Z,2.30
2024-04-22T14:56:22.193Z,2.17
2024-04-22T14:58:51.301Z,1.90
2024-04-22T15:01:17.976Z,2.33
2024-04-22T15:03:46.807Z,1.77
2024-04-22T15:06:13.500Z,1.90
2024-04-22T15:08:42.185Z,2.27
2024-04-22T15:11:10.242Z,2.90
2024-04-22T15:13:41.022Z,2.30
2024-04-22T15:16:07.755Z,2.43
2024-04-22T15:18:36.508Z,4.20
2024-04-22T15:21:03.463Z,3.00
2024-04-22T15:23:32.032Z,3.27
2024-04-22T15:25:58.718Z,3.10
2024-04-22T15:28:27.398Z,4.83
2024-04-22T15:30:56.381Z,4.17
2024-04-22T15:33:25.064Z,4.20
2024-04-22T15:35:51.708Z,3.30
2024-04-22T15:38:20.341Z,2.90
2024-04-22T15:40:47.039Z,3.23
2024-04-22T15:43:15.737Z,2.70
2024-04-22T15:45:43.547Z,2.70
2024-04-22T15:48:20.632Z,3.00
2024-04-22T15:50:48.242Z,4.27
2024-04-22T15:53:16.958Z,2.80
2024-04-22T15:55:53.645Z,2.73
2024-04-22T15:58:22.488Z,3.10
2024-04-22T16:00:49.489Z,3.13
2024-04-22T16:03:20.836Z,4.20
2024-04-22T16:05:47.631Z,4.00
2024-04-22T16:08:16.696Z,3.40
2024-04-22T16:10:46.400Z,3.63
2024-04-22T16:13:15.114Z,3.97
2024-04-22T16:15:41.946Z,3.40
2024-04-22T16:18:11.013Z,3.50
2024-04-22T16:20:39.702Z,3.50
2024-04-22T16:23:08.433Z,3.50
2024-04-22T16:25:35.070Z,3.03
2024-04-22T16:28:03.853Z,4.30
2024-04-22T16:30:30.416Z,3.10
2024-04-22T16:33:00.056Z,3.07
2024-04-22T16:35:26.716Z,3.00
2024-04-22T16:37:57.479Z,2.20
2024-04-22T16:40:24.184Z,2.23
2024-04-22T16:42:52.984Z,2.20
2024-04-22T16:45:19.899Z,2.10
2024-04-22T16:47:48.629Z,2.00
2024-04-22T16:50:15.462Z,1.90
2024-04-22T16:52:44.145Z,2.30
2024-04-22T16:55:12.954Z,2.50
2024-04-22T16:57:41.698Z,2.40
2024-04-22T17:00:08.981Z,2.47
2024-04-22T17:02:37.769Z,1.90
2024-04-22T17:05:07.373Z,2.30
2024-04-22T17:07:36.356Z,2.00
2024-04-22T17:10:05.601Z,2.87
2024-04-22T17:12:36.426Z,2.73
2024-04-22T17:15:03.405Z,2.23
2024-04-22T17:17:35.584Z,2.67
2024-04-22T17:20:02.500Z,3.60
2024-04-22T17:22:31.322Z,5.03
2024-04-22T17:24:58.275Z,3.00
2024-04-22T17:27:27.814Z,2.70
2024-04-22T17:29:56.555Z,5.53
2024-04-22T17:32:25.211Z,3.03
2024-04-22T17:34:51.950Z,2.87
2024-04-22T17:37:20.700Z,3.20
2024-04-22T17:39:47.396Z,2.20
2024-04-22T17:42:16.078Z,3.00
2024-04-22T17:44:46.593Z,3.07
2024-04-22T17:47:17.682Z,3.77
2024-04-22T17:49:44.582Z,3.17
2024-04-22T17:52:13.332Z,3.47
2024-04-22T17:54:39.948Z,2.17
2024-04-22T17:57:10.499Z,3.03
2024-04-22T17:59:37.101Z,2.90
2024-04-22T18:02:06.336Z,2.70
2024-04-22T18:04:35.129Z,2.90
2024-04-22T18:07:03.931Z,2.90
2024-04-22T18:09:32.113Z,4.63
2024-04-22T18:12:01.609Z,4.57
2024-04-22T18:14:28.214Z,4.13
2024-04-22T18:16:58.654Z,4.37
2024-04-22T18:19:26.077Z,4.30
2024-04-22T18:22:01.706Z,4.27
2024-04-22T18:24:31.330Z,3.90
2024-04-22T18:27:01.009Z,4.60
2024-04-22T18:29:27.711Z,3.60
2024-04-22T18:31:56.375Z,4.53
2024-04-22T18:34:23.203Z,5.57
2024-04-22T18:36:52.552Z,5.10
2024-04-22T18:39:21.239Z,4.83
2024-04-22T18:41:49.946Z,4.40
2024-04-22T18:44:16.836Z,5.13
2024-04-22T18:46:46.444Z,4.73
2024-04-22T18:49:13.357Z,4.97
2024-04-22T18:51:42.339Z,5.83
2024-04-22T18:54:09.037Z,5.87
2024-04-22T18:56:39.794Z,6.27
2024-04-22T18:59:06.562Z,6.43
2024-04-22T19:01:35.361Z,6.03
2024-04-22T19:04:02.053Z,6.10
2024-04-22T19:06:30.793Z,5.73
2024-04-22T19:08:57.410Z,5.77
2024-04-22T19:11:26.015Z,5.87
2024-04-22T19:13:54.766Z,4.47
2024-04-22T19:16:23.536Z,5.97
2024-04-22T19:18:50.246Z,4.50
2024-04-22T19:21:19.157Z,5.67
2024-04-22T19:23:45.861Z,4.97
2024-04-22T19:26:16.285Z,5.50
2024-04-22T19:28:42.894Z,5.93
2024-04-22T19:31:13.644Z,5.97
2024-04-22T19:33:40.496Z,5.57
2024-04-22T19:36:09.465Z,5.10
2024-04-22T19:38:36.136Z,6.00
2024-04-22T19:41:05.109Z,5.30
2024-04-22T19:43:31.765Z,5.33
2024-04-22T19:46:00.500Z,5.50
2024-04-22T19:48:30.900Z,5.80
2024-04-22T19:51:00.022Z,6.27
2024-04-22T19:53:26.690Z,6.33
2024-04-22T19:55:55.612Z,5.67
2024-04-22T19:58:22.497Z,7.57
2024-04-22T20:00:51.557Z,7.77
2024-04-22T20:03:18.382Z,7.90
2024-04-22T20:05:49.365Z,9.23
2024-04-22T20:08:16.052Z,8.13
2024-04-22T20:10:45.405Z,8.70
2024-04-22T20:13:12.020Z,8.33
2024-04-22T20:15:50.708Z,8.50
2024-04-22T20:18:28.368Z,8.63
2024-04-22T20:20:59.560Z,8.80
2024-04-22T20:23:26.167Z,7.57
2024-04-22T20:25:55.841Z,8.60
2024-04-22T20:28:24.034Z,7.90
2024-04-22T20:30:53.077Z,8.77
2024-04-22T20:33:20.573Z,7.33
2024-04-22T20:35:55.164Z,8.67
2024-04-22T20:38:24.114Z,8.43
2024-04-22T20:41:02.791Z,8.90
2024-04-22T20:43:30.535Z,8.13
2024-04-22T20:45:59.988Z,8.70
2024-04-22T20:48:27.076Z,8.53
2024-04-22T20:51:00.506Z,8.10
2024-04-22T20:53:30.043Z,7.97
2024-04-22T20:56:02.370Z,9.47
2024-04-22T20:58:29.215Z,8.30
2024-04-22T21:00:58.690Z,8.67
2024-04-22T21:03:25.827Z,8.53
2024-04-22T21:05:57.164Z,9.03
2024-04-22T21:08:25.619Z,8.60
2024-04-22T21:10:56.884Z,8.73
2024-04-22T21:13:23.617Z,8.50
2024-04-22T21:15:53.815Z,8.57
2024-04-22T21:18:20.919Z,9.20
2024-04-22T21:20:49.634Z,9.50
2024-04-22T21:23:16.713Z,8.60
2024-04-22T21:25:45.568Z,10.13
2024-04-22T21:28:14.839Z,9.23
2024-04-22T21:30:43.454Z,8.63
2024-04-22T21:33:27.056Z,8.57
2024-04-22T21:35:58.709Z,7.87
2024-04-22T21:38:25.366Z,8.73
2024-04-22T21:40:54.155Z,8.17
2024-04-22T21:43:25.785Z,8.30
2024-04-22T21:45:54.517Z,7.97
2024-04-22T21:48:24.339Z,7.83
2024-04-22T21:50:53.265Z,7.13
2024-04-22T21:53:20.455Z,8.10
2024-04-22T21:56:12.910Z,8.67
2024-04-22T21:59:19.060Z,9.00
2024-04-22T22:02:23.297Z,8.30
2024-04-22T22:05:29.569Z,9.03
2024-04-22T22:07:55.976Z,8.73
2024-04-22T22:10:26.833Z,8.70
2024-04-22T22:12:53.491Z,8.50
2024-04-22T22:15:22.220Z,8.77
2024-04-22T22:17:51.853Z,9.47
2024-04-22T22:20:23.155Z,8.53
2024-04-22T22:22:49.907Z,8.70
2024-04-22T22:25:19.342Z,8.60
2024-04-22T22:27:51.282Z,8.23
2024-04-22T22:30:20.931Z,9.17
2024-04-22T22:32:47.620Z,8.60
2024-04-22T22:35:16.424Z,6.23
2024-04-22T22:37:43.075Z,7.20
2024-04-22T22:40:12.192Z,7.20
2024-04-22T22:42:38.812Z,7.23
2024-04-22T22:45:10.016Z,7.53
2024-04-22T22:47:36.996Z,7.43
2024-04-22T22:50:06.407Z,6.77
2024-04-22T22:52:33.176Z,6.10
2024-04-22T22:55:02.471Z,6.87
2024-04-22T22:57:29.028Z,6.47
2024-04-22T22:59:57.866Z,7.23
2024-04-22T23:02:26.536Z,6.57
2024-04-22T23:04:55.680Z,6.53
2024-04-22T23:07:22.806Z,6.90
2024-04-22T23:09:51.651Z,6.20
2024-04-22T23:12:18.357Z,7.40
2024-04-22T23:14:46.999Z,6.67
2024-04-22T23:17:13.762Z,7.23
2024-04-22T23:19:44.624Z,6.53
2024-04-22T23:22:11.326Z,6.37
2024-04-22T23:24:40.352Z,6.13
2024-04-22T23:27:07.115Z,6.70
2024-04-22T23:29:35.919Z,6.97
2024-04-22T23:32:02.866Z,6.73
2024-04-22T23:34:31.739Z,6.90
2024-04-22T23:37:00.397Z,7.03
2024-04-22T23:39:29.066Z,7.33
2024-04-22T23:41:55.807Z,6.23
2024-04-22T23:44:24.539Z,7.03
2024-04-22T23:46:52.980Z,6.67
2024-04-22T23:49:21.788Z,6.60
2024-04-22T23:51:48.834Z,7.23
2024-04-22T23:54:19.653Z,7.17
2024-04-22T23:56:46.552Z,7.40
2024-04-22T23:59:15.356Z,6.90
